Colatina, Brazil
Current Conditions -  °F | °C
As of 10:00 PM on Wednesday 26 Nov 2014 (Local Time) from SBVT Reporting Station
Few Clouds Few Clouds  
Wind Chill: 77°   Ceiling: Unl
Heat Index: 79°   Visibility: 6mi
Dew Point: 66°   Wind: 14mph
Humidity: 69%   Direction: 20°NNE
Pressure: 29.88"   Gusts: NA
Location:  19.54°S, 40.63°W
Report Text: SBVT 270000Z 02012KT 9999 FEW040 25/19 Q1012
Loading
Personal Weather Stations






























Interactive Weather Map New forecast layout! Learn more

10-Day Weather Forecast

Advertisements
Track Severe Weather on mobile